Time;durP1;ratioP1;P1;durP2;ratioP2;P2;SDS_P1;SDS_P2;PMS_P1;PMS_P2;Temp;Humidity;BMP_temperature;BMP_pressure;BME280_temperature;BME280_humidity;BME280_pressure;Samples;Min_cycle;Max_cycle;Signal;HPM_P1;HPM_P2
2023/12/11 00:01:09;;;;;;;0.70;0.70;;;9.00;86.10;;;;;;5032035;28;20186;-83
2023/12/11 00:03:35;;;;;;;0.60;0.60;;;9.00;94.40;;;;;;5039690;28;20203;-83
2023/12/11 00:06:00;;;;;;;0.60;0.60;;;8.70;96.80;;;;;;5011388;28;20197;-83
2023/12/11 00:08:26;;;;;;;0.70;0.70;;;8.70;99.90;;;;;;5001246;28;20177;-84
2023/12/11 00:10:51;;;;;;;0.77;0.77;;;8.70;99.90;;;;;;4998070;28;20264;-83
2023/12/11 00:13:17;;;;;;;0.70;0.70;;;8.70;99.90;;;;;;5017679;28;20176;-84
2023/12/11 00:15:42;;;;;;;0.70;0.70;;;8.70;99.90;;;;;;5037736;28;20704;-84
2023/12/11 00:18:08;;;;;;;0.70;0.70;;;8.80;99.90;;;;;;5026462;28;20235;-84
2023/12/11 00:20:34;;;;;;;0.70;0.70;;;8.80;99.90;;;;;;5018126;28;20547;-85
2023/12/11 00:22:59;;;;;;;0.70;0.70;;;8.70;99.90;;;;;;5018646;28;20196;-84
2023/12/11 00:25:27;;;;;;;0.70;0.70;;;8.70;99.90;;;;;;5017505;28;20561;-84
2023/12/11 00:27:52;;;;;;;0.70;0.70;;;8.90;99.90;;;;;;5017419;28;20176;-83
2023/12/11 00:30:18;;;;;;;0.60;0.60;;;8.80;99.90;;;;;;5018042;28;20183;-84
2023/12/11 00:32:43;;;;;;;0.70;0.70;;;8.70;99.90;;;;;;5036972;28;20176;-84
2023/12/11 00:35:09;;;;;;;0.70;0.70;;;8.60;99.90;;;;;;5038860;28;20207;-87
2023/12/11 00:37:35;;;;;;;0.70;0.70;;;8.70;99.90;;;;;;5001420;28;20240;-83
2023/12/11 00:40:00;;;;;;;0.60;0.60;;;8.80;99.90;;;;;;4999910;28;20209;-84
2023/12/11 00:42:26;;;;;;;0.70;0.70;;;8.70;99.90;;;;;;5015784;28;20172;-83
2023/12/11 00:44:52;;;;;;;0.60;0.60;;;8.70;99.90;;;;;;5020025;28;20626;-82
2023/12/11 00:47:18;;;;;;;0.70;0.70;;;8.70;99.90;;;;;;5017930;28;20200;-83
2023/12/11 00:49:43;;;;;;;0.70;0.70;;;8.70;99.90;;;;;;5017813;28;20542;-83
2023/12/11 00:52:09;;;;;;;0.70;0.70;;;8.70;99.90;;;;;;5018522;28;20646;-83
2023/12/11 00:54:35;;;;;;;0.70;0.70;;;8.80;99.90;;;;;;5017746;28;20187;-83
2023/12/11 00:57:00;;;;;;;0.80;0.80;;;8.80;99.90;;;;;;5016274;28;20204;-84
2023/12/11 00:59:26;;;;;;;0.80;0.80;;;8.80;99.90;;;;;;5017063;28;20646;-84
2023/12/11 01:01:52;;;;;;;0.80;0.80;;;8.80;99.90;;;;;;5016394;28;20238;-83
2023/12/11 01:04:18;;;;;;;0.70;0.70;;;8.70;99.90;;;;;;5015944;28;20184;-84
2023/12/11 01:06:44;;;;;;;0.63;0.63;;;8.80;99.90;;;;;;5015092;28;20200;-85
2023/12/11 01:09:09;;;;;;;0.70;0.70;;;8.80;99.90;;;;;;5016209;28;20639;-83
2023/12/11 01:11:35;;;;;;;0.77;0.77;;;8.90;99.90;;;;;;5016778;28;20196;-83
2023/12/11 01:14:00;;;;;;;0.70;0.70;;;8.90;99.90;;;;;;5015346;28;20173;-84
2023/12/11 01:16:26;;;;;;;0.70;0.70;;;8.80;99.90;;;;;;5015250;28;20212;-86
2023/12/11 01:18:51;;;;;;;0.60;0.60;;;9.20;99.90;;;;;;4998139;28;20638;-83
2023/12/11 01:21:17;;;;;;;0.70;0.70;;;8.90;99.90;;;;;;5015931;28;20259;-86
2023/12/11 01:23:43;;;;;;;0.70;0.70;;;8.90;99.90;;;;;;5016420;28;20177;-85
2023/12/11 01:26:09;;;;;;;0.70;0.70;;;8.90;99.90;;;;;;5015539;28;20204;-84
2023/12/11 01:28:35;;;;;;;0.63;0.63;;;8.90;99.90;;;;;;5015816;28;20673;-84
2023/12/11 01:31:00;;;;;;;0.60;0.60;;;8.90;99.90;;;;;;5015777;28;20184;-84
2023/12/11 01:33:26;;;;;;;0.70;0.70;;;8.90;99.90;;;;;;5016006;28;20184;-85
2023/12/11 01:35:51;;;;;;;0.60;0.60;;;8.90;99.90;;;;;;5014542;28;20213;-85
2023/12/11 01:38:17;;;;;;;0.70;0.70;;;8.80;99.90;;;;;;5015658;28;20173;-84
2023/12/11 01:40:43;;;;;;;0.70;0.70;;;8.90;99.90;;;;;;5017500;28;20683;-84
2023/12/11 01:43:19;;;;;;;0.70;0.70;;;8.80;99.90;;;;;;5014615;28;20200;-84
2023/12/11 01:45:57;;;;;;;0.60;0.60;;;8.80;99.90;;;;;;5018265;28;20196;-85
2023/12/11 01:48:23;;;;;;;0.80;0.80;;;8.80;99.90;;;;;;5018821;28;20180;-84
2023/12/11 01:50:48;;;;;;;0.73;0.73;;;8.80;99.90;;;;;;5018507;28;20257;-84
2023/12/11 01:53:14;;;;;;;0.60;0.60;;;8.90;99.90;;;;;;5018651;28;20181;-85
2023/12/11 01:55:40;;;;;;;0.70;0.70;;;8.80;99.90;;;;;;5015531;28;20592;-84
2023/12/11 01:58:07;;;;;;;0.60;0.60;;;8.80;99.90;;;;;;5014733;28;20181;-84
2023/12/11 02:00:33;;;;;;;0.70;0.70;;;8.90;99.90;;;;;;5015021;28;20187;-84
2023/12/11 02:02:58;;;;;;;0.70;0.70;;;8.90;99.90;;;;;;5014023;28;20231;-84
2023/12/11 02:05:24;;;;;;;0.70;0.70;;;9.10;99.90;;;;;;5014301;28;20185;-84
2023/12/11 02:07:50;;;;;;;0.70;0.70;;;9.00;99.90;;;;;;5014377;28;20179;-83
2023/12/11 02:10:15;;;;;;;0.70;0.70;;;9.00;99.90;;;;;;5015240;28;20210;-84
2023/12/11 02:12:42;;;;;;;0.70;0.70;;;9.00;99.90;;;;;;5016212;28;20176;-84
2023/12/11 02:15:08;;;;;;;0.73;0.73;;;9.00;99.90;;;;;;5015492;28;20188;-84
2023/12/11 02:17:34;;;;;;;0.70;0.70;;;9.00;99.90;;;;;;4998858;28;20216;-85
2023/12/11 02:19:59;;;;;;;0.80;0.80;;;9.10;99.90;;;;;;5015859;28;20172;-84
2023/12/11 02:22:25;;;;;;;0.70;0.70;;;9.10;99.90;;;;;;5014063;28;20177;-84
2023/12/11 02:24:58;;;;;;;0.80;0.80;;;9.10;99.90;;;;;;5013187;28;20180;-84
2023/12/11 02:27:25;;;;;;;0.70;0.70;;;9.10;99.90;;;;;;4995977;28;20699;-84
2023/12/11 02:29:53;;;;;;;0.70;0.70;;;9.30;99.90;;;;;;5013704;28;20669;-84
2023/12/11 02:32:19;;;;;;;0.60;0.60;;;9.00;99.90;;;;;;5014302;28;20224;-84
2023/12/11 02:34:47;;;;;;;0.63;0.63;;;9.00;99.90;;;;;;5013075;28;20546;-84
2023/12/11 02:37:13;;;;;;;0.70;0.70;;;9.00;99.90;;;;;;5013853;28;20604;-85
2023/12/11 02:39:39;;;;;;;0.70;0.70;;;8.90;99.90;;;;;;5013486;28;20175;-84
2023/12/11 02:42:04;;;;;;;0.70;0.70;;;9.00;99.90;;;;;;5014153;28;20172;-85
2023/12/11 02:44:30;;;;;;;0.60;0.60;;;8.90;99.90;;;;;;4995985;28;20169;-84
2023/12/11 02:46:55;;;;;;;0.60;0.60;;;8.90;99.90;;;;;;5014165;28;20211;-85
2023/12/11 02:49:21;;;;;;;0.60;0.60;;;8.80;99.90;;;;;;5013778;28;20592;-84
2023/12/11 02:51:47;;;;;;;0.70;0.70;;;8.80;99.90;;;;;;5014086;28;20215;-85
2023/12/11 02:54:12;;;;;;;0.63;0.63;;;8.80;99.90;;;;;;5014769;28;20188;-84
2023/12/11 02:56:40;;;;;;;0.60;0.60;;;8.80;99.90;;;;;;5013275;28;20212;-84
2023/12/11 02:59:05;;;;;;;0.60;0.60;;;8.90;99.90;;;;;;4997116;28;20404;-84
2023/12/11 03:01:31;;;;;;;0.57;0.57;;;8.90;99.90;;;;;;5015115;28;20200;-85
2023/12/11 03:03:57;;;;;;;0.70;0.70;;;8.80;99.90;;;;;;5012921;28;20220;-84
2023/12/11 03:06:22;;;;;;;0.57;0.57;;;8.80;99.90;;;;;;5013656;28;20196;-84
2023/12/11 03:08:48;;;;;;;0.80;0.80;;;8.80;99.90;;;;;;5014530;28;20183;-84
2023/12/11 03:11:14;;;;;;;0.70;0.70;;;8.70;99.90;;;;;;5014793;28;20265;-84
2023/12/11 03:13:39;;;;;;;0.80;0.80;;;8.80;99.90;;;;;;4996661;28;20573;-85
2023/12/11 03:16:05;;;;;;;0.60;0.60;;;8.70;99.90;;;;;;5011187;28;20212;-84
2023/12/11 03:18:31;;;;;;;0.70;0.70;;;8.70;99.90;;;;;;5012261;28;20176;-84
2023/12/11 03:20:56;;;;;;;0.70;0.70;;;8.70;99.90;;;;;;5012133;28;20232;-85
2023/12/11 03:23:22;;;;;;;0.60;0.60;;;8.70;99.90;;;;;;5012227;28;20172;-84
2023/12/11 03:25:48;;;;;;;0.80;0.80;;;8.70;99.90;;;;;;5012992;28;20243;-84
2023/12/11 03:28:14;;;;;;;0.70;0.70;;;8.70;99.90;;;;;;5013068;28;20475;-84
2023/12/11 03:30:39;;;;;;;0.77;0.77;;;8.60;99.90;;;;;;5028117;28;20172;-84
2023/12/11 03:33:05;;;;;;;0.70;0.70;;;8.60;99.90;;;;;;5024260;28;20216;-85
2023/12/11 03:35:31;;;;;;;0.80;0.80;;;8.50;99.90;;;;;;5015034;28;20276;-85
2023/12/11 03:37:56;;;;;;;0.70;0.70;;;8.50;99.90;;;;;;5015478;28;20258;-85
2023/12/11 03:40:22;;;;;;;0.70;0.70;;;8.50;99.90;;;;;;5015188;28;20260;-86
2023/12/11 03:42:48;;;;;;;0.60;0.60;;;8.50;99.90;;;;;;5016405;28;20638;-85
2023/12/11 03:45:13;;;;;;;0.70;0.70;;;8.40;99.90;;;;;;5016410;28;20243;-85
2023/12/11 03:47:39;;;;;;;0.70;0.70;;;8.50;99.90;;;;;;5019865;28;20196;-86
2023/12/11 03:50:05;;;;;;;0.60;0.60;;;8.50;99.90;;;;;;5019500;28;20181;-85
2023/12/11 03:52:31;;;;;;;0.70;0.70;;;8.40;99.90;;;;;;5032139;28;20180;-84
2023/12/11 03:54:56;;;;;;;0.70;0.70;;;8.40;99.90;;;;;;5038295;28;20165;-84
2023/12/11 03:57:22;;;;;;;0.60;0.60;;;8.40;99.90;;;;;;5018600;28;20275;-84
2023/12/11 03:59:47;;;;;;;0.60;0.60;;;8.40;99.90;;;;;;5036418;28;20248;-84
2023/12/11 04:02:13;;;;;;;0.70;0.70;;;8.20;99.90;;;;;;5035306;28;20176;-84
2023/12/11 04:04:39;;;;;;;0.70;0.70;;;8.20;99.90;;;;;;5036272;28;20267;-84
2023/12/11 04:07:04;;;;;;;0.77;0.77;;;8.40;99.90;;;;;;5035250;28;20192;-86
2023/12/11 04:09:30;;;;;;;0.70;0.70;;;8.40;99.90;;;;;;5031269;28;20237;-86
2023/12/11 04:11:56;;;;;;;0.70;0.70;;;8.40;99.90;;;;;;5021196;28;20172;-85
2023/12/11 04:14:21;;;;;;;0.70;0.70;;;8.40;99.90;;;;;;5020288;28;20654;-86
2023/12/11 04:16:47;;;;;;;0.70;0.70;;;8.10;99.90;;;;;;5003082;28;20725;-84
2023/12/11 04:19:12;;;;;;;0.73;0.73;;;8.00;99.90;;;;;;5020855;28;20191;-85
2023/12/11 04:21:38;;;;;;;0.67;0.67;;;8.00;99.90;;;;;;5020926;28;20173;-85
2023/12/11 04:24:04;;;;;;;0.80;0.80;;;7.80;99.90;;;;;;5020510;28;20176;-85
2023/12/11 04:26:30;;;;;;;0.70;0.70;;;7.70;99.90;;;;;;5019802;28;20576;-86
2023/12/11 04:28:55;;;;;;;0.70;0.70;;;7.60;99.90;;;;;;5002576;28;20558;-84
2023/12/11 04:31:23;;;;;;;0.70;0.70;;;7.70;99.90;;;;;;5020203;28;20190;-84
2023/12/11 04:33:49;;;;;;;0.70;0.70;;;7.60;99.90;;;;;;5001163;28;20267;-86
2023/12/11 04:36:15;;;;;;;0.70;0.70;;;7.60;99.90;;;;;;5018806;28;20223;-85
2023/12/11 04:38:40;;;;;;;0.70;0.70;;;7.50;99.90;;;;;;5019604;28;20176;-85
2023/12/11 04:41:06;;;;;;;0.60;0.60;;;7.50;99.90;;;;;;5019077;28;20187;-85
2023/12/11 04:43:33;;;;;;;0.70;0.70;;;7.40;99.90;;;;;;5024781;28;20180;-86
2023/12/11 04:45:59;;;;;;;0.73;0.73;;;7.60;99.90;;;;;;5019463;28;20201;-86
2023/12/11 04:48:25;;;;;;;0.70;0.70;;;7.80;99.90;;;;;;5020308;28;20239;-85
2023/12/11 04:50:51;;;;;;;0.70;0.70;;;7.90;99.90;;;;;;5021931;28;20172;-86
2023/12/11 04:53:16;;;;;;;0.80;0.80;;;8.00;99.90;;;;;;5018587;28;20177;-86
2023/12/11 04:55:42;;;;;;;0.70;0.70;;;8.10;99.90;;;;;;5018940;28;20238;-85
2023/12/11 04:58:07;;;;;;;0.70;0.70;;;8.30;99.90;;;;;;5019232;28;20177;-85
2023/12/11 05:00:33;;;;;;;0.77;0.77;;;8.30;99.90;;;;;;5019707;28;20793;-85
2023/12/11 05:02:59;;;;;;;0.80;0.80;;;8.30;99.90;;;;;;5019839;28;20179;-86
2023/12/11 05:05:25;;;;;;;0.73;0.73;;;8.30;99.90;;;;;;5018275;28;20172;-85
2023/12/11 05:07:50;;;;;;;0.70;0.70;;;8.50;99.90;;;;;;5018404;28;20183;-85
2023/12/11 05:10:16;;;;;;;0.70;0.70;;;8.40;99.90;;;;;;5019794;28;20193;-85
2023/12/11 05:12:41;;;;;;;0.80;0.80;;;8.60;99.90;;;;;;5017928;28;20584;-85
2023/12/11 05:15:07;;;;;;;0.60;0.60;;;8.50;99.90;;;;;;5018601;28;20180;-84
2023/12/11 05:17:33;;;;;;;0.80;0.80;;;8.60;99.90;;;;;;5019350;28;20240;-84
2023/12/11 05:19:59;;;;;;;0.70;0.70;;;8.60;99.90;;;;;;5018740;28;20180;-84
2023/12/11 05:22:24;;;;;;;0.70;0.70;;;8.60;99.90;;;;;;4998739;28;20773;-84
2023/12/11 05:24:50;;;;;;;0.70;0.70;;;8.60;99.90;;;;;;5017830;28;20255;-84
2023/12/11 05:27:16;;;;;;;0.70;0.70;;;8.50;99.90;;;;;;5017192;28;20208;-83
2023/12/11 05:29:42;;;;;;;0.70;0.70;;;8.50;99.90;;;;;;5017724;28;20550;-85
2023/12/11 05:32:10;;;;;;;0.80;0.80;;;8.60;99.90;;;;;;4999843;28;20264;-83
2023/12/11 05:34:35;;;;;;;0.80;0.80;;;8.50;99.90;;;;;;5017252;28;20188;-84
2023/12/11 05:37:01;;;;;;;0.83;0.83;;;8.70;99.90;;;;;;5015930;28;20208;-83
2023/12/11 05:39:27;;;;;;;0.70;0.70;;;8.60;99.90;;;;;;4999743;28;20267;-84
2023/12/11 05:41:52;;;;;;;0.80;0.80;;;8.60;99.90;;;;;;5000087;28;20169;-84
2023/12/11 05:44:19;;;;;;;0.80;0.80;;;8.40;99.90;;;;;;5017835;28;20176;-84
2023/12/11 05:46:45;;;;;;;0.80;0.80;;;8.40;99.90;;;;;;4999734;28;20188;-84
2023/12/11 05:49:11;;;;;;;0.80;0.80;;;8.30;99.90;;;;;;5016978;28;20708;-83
2023/12/11 05:51:37;;;;;;;0.60;0.60;;;8.40;99.90;;;;;;5016743;28;20173;-84
2023/12/11 05:54:03;;;;;;;0.70;0.70;;;8.40;99.90;;;;;;4982848;28;20172;-82
2023/12/11 05:56:30;;;;;;;0.70;0.70;;;8.30;99.90;;;;;;4998002;28;20239;-84
2023/12/11 05:58:56;;;;;;;0.70;0.70;;;8.30;99.90;;;;;;5015771;28;20199;-84
2023/12/11 06:01:21;;;;;;;0.67;0.67;;;8.40;99.90;;;;;;5017347;28;20173;-84
2023/12/11 06:03:47;;;;;;;0.70;0.70;;;8.20;99.90;;;;;;5016628;28;20191;-83
2023/12/11 06:06:16;;;;;;;0.80;0.80;;;8.40;99.90;;;;;;4998067;28;20188;-83
2023/12/11 06:08:44;;;;;;;0.70;0.70;;;8.40;99.90;;;;;;5017100;28;20670;-83
2023/12/11 06:11:10;;;;;;;0.70;0.70;;;8.30;99.90;;;;;;5017625;28;20192;-83
2023/12/11 06:13:36;;;;;;;0.70;0.70;;;8.30;99.90;;;;;;5017627;28;20190;-86
2023/12/11 06:16:04;;;;;;;0.73;0.73;;;8.40;99.90;;;;;;5017531;28;20210;-84
2023/12/11 06:18:30;;;;;;;0.70;0.70;;;8.40;99.90;;;;;;5017882;28;20175;-84
2023/12/11 06:20:58;;;;;;;0.70;0.70;;;8.40;99.90;;;;;;5018480;28;20337;-84
2023/12/11 06:23:25;;;;;;;0.60;0.60;;;8.40;99.90;;;;;;5020140;28;20257;-87
2023/12/11 06:25:51;;;;;;;0.60;0.60;;;8.50;99.90;;;;;;5016339;28;20204;-84
2023/12/11 06:28:17;;;;;;;0.70;0.70;;;8.60;99.90;;;;;;5006407;28;20212;-83
2023/12/11 06:30:43;;;;;;;0.60;0.60;;;8.60;99.90;;;;;;5019026;28;20207;-83
2023/12/11 06:33:09;;;;;;;0.70;0.70;;;8.70;99.90;;;;;;5018280;28;20177;-83
2023/12/11 06:35:34;;;;;;;0.70;0.70;;;8.80;99.90;;;;;;5020155;28;20272;-84
2023/12/11 06:38:00;;;;;;;0.70;0.70;;;8.80;99.90;;;;;;5018339;28;20211;-84
2023/12/11 06:40:26;;;;;;;0.70;0.70;;;8.80;99.90;;;;;;5018409;28;20224;-84
2023/12/11 06:42:51;;;;;;;0.70;0.70;;;8.90;99.90;;;;;;5015306;28;20180;-84
2023/12/11 06:45:17;;;;;;;0.80;0.80;;;8.90;99.90;;;;;;5020406;28;20184;-83
2023/12/11 06:47:43;;;;;;;0.60;0.60;;;8.80;99.90;;;;;;5018823;28;20200;-86
2023/12/11 06:50:09;;;;;;;0.63;0.63;;;9.00;99.90;;;;;;4999809;28;20177;-84
2023/12/11 06:52:35;;;;;;;0.63;0.63;;;9.10;99.90;;;;;;5019391;28;20176;-83
2023/12/11 06:55:01;;;;;;;0.70;0.70;;;9.00;99.90;;;;;;5018663;28;20579;-84
2023/12/11 06:57:27;;;;;;;0.80;0.80;;;9.00;99.90;;;;;;5020103;28;20250;-83
2023/12/11 06:59:53;;;;;;;0.60;0.60;;;9.00;99.90;;;;;;5022258;28;20176;-82
2023/12/11 07:02:18;;;;;;;0.70;0.70;;;9.00;99.90;;;;;;5029484;28;20180;-82
2023/12/11 07:04:44;;;;;;;0.60;0.60;;;9.20;99.90;;;;;;5033389;28;20180;-79
2023/12/11 07:07:10;;;;;;;0.70;0.70;;;9.20;99.90;;;;;;5035077;28;20193;-82
2023/12/11 07:09:35;;;;;;;0.70;0.70;;;9.20;99.90;;;;;;5035711;28;20192;-82
2023/12/11 07:12:01;;;;;;;0.70;0.70;;;9.10;99.90;;;;;;5018136;28;20199;-81
2023/12/11 07:14:27;;;;;;;0.70;0.70;;;9.00;99.90;;;;;;5032548;28;20184;-82
2023/12/11 07:16:52;;;;;;;0.60;0.60;;;9.20;99.90;;;;;;5026774;28;20224;-83
2023/12/11 07:19:21;;;;;;;0.60;0.60;;;9.20;99.90;;;;;;5026571;28;20592;-79
2023/12/11 07:21:46;;;;;;;0.70;0.70;;;9.20;99.90;;;;;;5027287;28;20186;-82
2023/12/11 07:24:12;;;;;;;0.60;0.60;;;9.10;99.90;;;;;;5001054;28;20164;-81
2023/12/11 07:26:38;;;;;;;0.60;0.60;;;9.20;99.90;;;;;;5017854;28;20241;-81
2023/12/11 07:29:07;;;;;;;0.60;0.60;;;9.20;99.90;;;;;;5018867;28;20175;-81
2023/12/11 07:31:33;;;;;;;0.50;0.50;;;9.10;99.90;;;;;;5018810;28;20574;-81
2023/12/11 07:33:59;;;;;;;0.70;0.70;;;9.10;99.90;;;;;;5017628;28;20173;-80
2023/12/11 07:36:24;;;;;;;0.70;0.70;;;9.00;99.90;;;;;;5016542;28;20719;-83
2023/12/11 07:38:50;;;;;;;0.60;0.60;;;9.00;99.90;;;;;;5018144;28;20168;-82
2023/12/11 07:41:22;;;;;;;0.60;0.60;;;9.00;99.90;;;;;;5017017;28;20168;-82
2023/12/11 07:43:48;;;;;;;0.50;0.50;;;9.00;99.90;;;;;;4996411;28;20177;-83
2023/12/11 07:46:21;;;;;;;0.60;0.60;;;9.00;99.90;;;;;;5016233;28;20319;-83
2023/12/11 07:48:47;;;;;;;0.60;0.60;;;9.00;99.90;;;;;;5015458;28;20180;-82
2023/12/11 07:51:19;;;;;;;0.60;0.60;;;9.10;99.90;;;;;;5015233;28;20288;-82
2023/12/11 07:53:46;;;;;;;0.57;0.57;;;9.00;99.90;;;;;;5017763;28;20183;-81
2023/12/11 07:56:22;;;;;;;0.70;0.70;;;9.00;99.90;;;;;;5034387;28;20218;-83
2023/12/11 07:58:48;;;;;;;0.70;0.70;;;8.90;99.90;;;;;;5029649;28;20172;-82
2023/12/11 08:01:14;;;;;;;0.73;0.73;;;8.90;99.90;;;;;;5035450;28;20321;-83
2023/12/11 08:03:39;;;;;;;0.60;0.60;;;8.90;99.90;;;;;;5033929;28;20183;-82
2023/12/11 08:06:05;;;;;;;0.60;0.60;;;9.20;99.90;;;;;;5021169;28;20226;-85
2023/12/11 08:08:31;;;;;;;0.70;0.70;;;8.90;99.90;;;;;;5027177;28;20255;-83
2023/12/11 08:10:56;;;;;;;0.60;0.60;;;9.20;99.90;;;;;;5028867;28;20183;-82
2023/12/11 08:13:22;;;;;;;0.70;0.70;;;9.00;99.90;;;;;;5035642;28;20176;-83
2023/12/11 08:15:47;;;;;;;0.60;0.60;;;9.00;99.90;;;;;;5034759;28;20579;-83
2023/12/11 08:18:14;;;;;;;0.57;0.57;;;9.00;99.90;;;;;;5023715;28;20283;-83
2023/12/11 08:20:39;;;;;;;0.70;0.70;;;8.90;99.90;;;;;;5034887;28;20467;-83
2023/12/11 08:23:05;;;;;;;0.70;0.70;;;8.90;99.90;;;;;;5002286;28;20784;-84
2023/12/11 08:25:31;;;;;;;0.53;0.53;;;9.00;99.90;;;;;;5012301;28;20199;-84
2023/12/11 08:28:12;;;;;;;0.60;0.60;;;8.90;99.90;;;;;;5033997;28;20180;-85
2023/12/11 08:30:38;;;;;;;0.60;0.60;;;9.00;99.90;;;;;;5030339;28;20184;-84
2023/12/11 08:33:05;;;;;;;0.70;0.70;;;9.00;99.90;;;;;;5018752;28;20211;-83
2023/12/11 08:35:30;;;;;;;0.60;0.60;;;9.20;99.90;;;;;;5018080;28;20287;-84
2023/12/11 08:37:56;;;;;;;0.50;0.50;;;9.10;99.90;;;;;;5017756;28;20251;-84
2023/12/11 08:40:23;;;;;;;0.50;0.50;;;9.10;99.90;;;;;;5018260;28;20650;-82
2023/12/11 08:42:49;;;;;;;0.53;0.53;;;9.20;99.90;;;;;;5019477;28;20562;-83
2023/12/11 08:45:14;;;;;;;0.60;0.60;;;9.20;99.90;;;;;;5018089;28;20595;-83
2023/12/11 08:47:41;;;;;;;0.70;0.70;;;9.30;99.90;;;;;;5000238;28;20176;-84
2023/12/11 08:50:08;;;;;;;0.60;0.60;;;9.30;99.90;;;;;;5017874;28;20177;-83
2023/12/11 08:52:34;;;;;;;0.57;0.57;;;9.30;99.90;;;;;;5018188;28;20236;-84
2023/12/11 08:55:00;;;;;;;0.60;0.60;;;9.40;99.90;;;;;;5000252;28;20724;-82
2023/12/11 08:57:25;;;;;;;0.50;0.50;;;9.40;99.90;;;;;;5018916;28;20291;-84
2023/12/11 08:59:51;;;;;;;0.60;0.60;;;9.50;99.90;;;;;;5018613;28;20180;-83
2023/12/11 09:02:17;;;;;;;0.50;0.50;;;9.50;99.90;;;;;;5019343;28;20176;-83
2023/12/11 09:04:42;;;;;;;0.50;0.50;;;9.70;99.90;;;;;;5018875;28;20287;-83
2023/12/11 09:07:09;;;;;;;0.50;0.50;;;9.80;99.90;;;;;;5018728;28;20204;-83
2023/12/11 09:09:36;;;;;;;0.50;0.50;;;9.90;99.90;;;;;;5018681;28;20215;-83
2023/12/11 09:12:02;;;;;;;0.60;0.60;;;10.40;99.90;;;;;;5019419;28;20172;-83
2023/12/11 09:14:28;;;;;;;0.60;0.60;;;10.20;55.90;;;;;;5017588;28;20172;-83
2023/12/11 09:16:53;;;;;;;0.50;0.50;;;10.20;80.40;;;;;;5016912;28;20215;-84
2023/12/11 09:19:19;;;;;;;0.50;0.50;;;10.20;78.40;;;;;;5018748;28;20180;-84
2023/12/11 09:21:44;;;;;;;0.50;0.50;;;10.00;92.90;;;;;;5017210;28;20204;-84
2023/12/11 09:24:11;;;;;;;0.40;0.40;;;10.10;98.20;;;;;;5019446;28;20169;-84
2023/12/11 09:26:37;;;;;;;0.60;0.60;;;10.00;99.90;;;;;;5019554;28;20200;-84
2023/12/11 09:29:02;;;;;;;0.50;0.50;;;10.30;99.90;;;;;;5019259;28;20172;-84
2023/12/11 09:31:28;;;;;;;0.50;0.50;;;10.30;90.00;;;;;;5022361;28;20645;-85
2023/12/11 09:33:53;;;;;;;0.50;0.50;;;10.10;92.20;;;;;;5036185;28;20176;-83
2023/12/11 09:36:19;;;;;;;0.50;0.50;;;10.00;97.70;;;;;;5020379;28;20777;-83
2023/12/11 09:38:45;;;;;;;0.50;0.50;;;9.90;95.60;;;;;;5003509;28;20196;-84
2023/12/11 09:41:13;;;;;;;0.60;0.60;;;9.90;99.90;;;;;;5020456;28;20188;-83
2023/12/11 09:43:39;;;;;;;0.50;0.50;;;9.90;99.90;;;;;;5020217;28;20200;-83
2023/12/11 09:46:08;;;;;;;0.50;0.50;;;9.90;95.50;;;;;;5020550;28;20197;-83
2023/12/11 09:48:34;;;;;;;0.57;0.57;;;10.00;98.40;;;;;;5019989;28;20185;-83
2023/12/11 09:51:01;;;;;;;0.60;0.60;;;10.10;95.10;;;;;;5019957;28;20165;-82
2023/12/11 09:53:30;;;;;;;0.60;0.60;;;10.50;36.50;;;;;;5018920;28;20177;-82
2023/12/11 09:55:57;;;;;;;0.60;0.60;;;10.50;14.70;;;;;;5018404;28;20201;-83
2023/12/11 09:58:23;;;;;;;0.50;0.50;;;10.60;10.60;;;;;;5019211;28;20256;-83
2023/12/11 10:00:48;;;;;;;0.60;0.60;;;10.50;11.90;;;;;;5018630;28;20196;-82
2023/12/11 10:03:15;;;;;;;0.50;0.50;;;10.60;4.10;;;;;;5000886;28;20177;-85
2023/12/11 10:05:41;;;;;;;0.50;0.50;;;10.70;1.00;;;;;;5000547;28;20196;-83
2023/12/11 10:08:06;;;;;;;0.50;0.50;;;10.70;1.00;;;;;;4998258;28;20184;-84
2023/12/11 10:10:33;;;;;;;0.57;0.57;;;10.70;1.00;;;;;;5016202;28;20207;-83
2023/12/11 10:13:00;;;;;;;0.50;0.50;;;10.80;1.00;;;;;;5017149;28;20176;-86
2023/12/11 10:15:36;;;;;;;0.47;0.47;;;10.90;1.00;;;;;;5011279;28;20232;-87
2023/12/11 10:18:12;;;;;;;0.50;0.50;;;11.10;1.00;;;;;;5013705;28;20204;-85
2023/12/11 10:20:39;;;;;;;0.50;0.50;;;11.30;1.00;;;;;;5017958;28;20180;-82
2023/12/11 10:23:18;;;;;;;0.60;0.60;;;11.20;1.00;;;;;;5002000;28;20196;-83
2023/12/11 10:26:05;;;;;;;0.50;0.50;;;11.30;1.00;;;;;;5019210;28;20192;-81
2023/12/11 10:28:31;;;;;;;0.50;0.50;;;11.90;1.00;;;;;;5022427;28;20177;-83
2023/12/11 10:30:59;;;;;;;0.50;0.50;;;13.90;1.00;;;;;;5002189;28;20188;-85
2023/12/11 10:33:26;;;;;;;0.50;0.50;;;14.30;99.90;;;;;;5024144;28;20177;-84
2023/12/11 10:36:06;;;;;;;0.50;0.50;;;14.20;99.90;;;;;;5015546;28;20215;-83
2023/12/11 10:38:32;;;;;;;0.40;0.40;;;14.40;99.90;;;;;;5001689;28;20177;-84
2023/12/11 10:40:58;;;;;;;0.50;0.50;;;15.50;1.00;;;;;;4984933;28;20204;-86
2023/12/11 10:43:23;;;;;;;0.50;0.50;;;14.90;1.00;;;;;;4999643;28;20201;-83
2023/12/11 10:45:49;;;;;;;0.40;0.40;;;16.10;99.90;;;;;;4999526;28;20250;-80
2023/12/11 10:48:15;;;;;;;0.40;0.40;;;15.20;99.90;;;;;;5014807;28;20257;-80
2023/12/11 10:50:41;;;;;;;0.50;0.50;;;13.90;1.00;;;;;;5014125;28;20184;-80
2023/12/11 10:53:08;;;;;;;0.50;0.50;;;13.40;89.60;;;;;;5012114;28;20192;-80
2023/12/11 10:55:36;;;;;;;0.40;0.40;;;12.80;1.00;;;;;;4994280;28;20213;-79
2023/12/11 10:58:03;;;;;;;0.40;0.40;;;12.50;1.00;;;;;;5018581;28;20200;-81
2023/12/11 11:00:31;;;;;;;0.40;0.40;;;12.40;1.00;;;;;;5017667;28;20572;-79
2023/12/11 11:02:58;;;;;;;0.40;0.40;;;12.10;1.00;;;;;;5023372;28;20200;-83
2023/12/11 11:05:27;;;;;;;0.60;0.60;;;12.00;1.00;;;;;;5023070;28;20208;-82
2023/12/11 11:08:04;;;;;;;0.40;0.40;;;12.00;79.10;;;;;;5021675;28;20168;-80
2023/12/11 11:10:59;;;;;;;0.50;0.50;;;12.30;1.00;;;;;;5018072;28;20615;-82
2023/12/11 11:13:34;;;;;;;0.50;0.50;;;12.30;1.00;;;;;;5011620;28;20250;-81
2023/12/11 11:16:00;;;;;;;0.40;0.40;;;13.10;99.90;;;;;;5019107;28;20196;-81
2023/12/11 11:18:26;;;;;;;0.47;0.47;;;12.80;99.90;;;;;;5019060;28;20192;-82
2023/12/11 11:21:12;;;;;;;0.50;0.50;;;12.50;99.90;;;;;;5019641;28;20172;-82
2023/12/11 11:23:47;;;;;;;0.40;0.40;;;12.30;1.00;;;;;;5019993;28;20252;-82
2023/12/11 11:26:36;;;;;;;0.50;0.50;;;12.20;99.90;;;;;;5020556;28;20227;-83
2023/12/11 11:29:05;;;;;;;0.50;0.50;;;12.20;1.00;;;;;;5002604;28;20716;-81
2023/12/11 11:31:51;;;;;;;0.50;0.50;;;12.00;1.00;;;;;;5032106;28;20525;-80
2023/12/11 11:34:45;;;;;;;0.50;0.50;;;12.00;99.90;;;;;;5015527;28;20224;-80
2023/12/11 11:37:11;;;;;;;0.50;0.50;;;12.00;25.10;;;;;;5012862;28;20213;-79
2023/12/11 11:39:58;;;;;;;0.60;0.60;;;12.10;1.00;;;;;;5030194;28;20172;-82
2023/12/11 11:42:25;;;;;;;0.50;0.50;;;12.20;1.00;;;;;;5023038;28;20212;-82
2023/12/11 11:45:01;;;;;;;0.70;0.70;;;12.20;1.00;;;;;;5019160;28;20188;-83
2023/12/11 11:47:27;;;;;;;0.60;0.60;;;12.20;1.00;;;;;;5019319;28;20733;-86
2023/12/11 11:49:53;;;;;;;0.60;0.60;;;12.20;1.00;;;;;;5020997;28;20654;-84
2023/12/11 11:52:25;;;;;;;0.50;0.50;;;12.20;99.90;;;;;;5020564;28;20181;-84
2023/12/11 11:54:59;;;;;;;0.40;0.40;;;12.10;1.00;;;;;;5021836;28;20204;-86
2023/12/11 11:57:28;;;;;;;0.60;0.60;;;12.10;99.90;;;;;;5022562;28;20243;-83
2023/12/11 11:59:54;;;;;;;0.57;0.57;;;12.00;1.00;;;;;;5021840;28;20200;-83
2023/12/11 12:02:24;;;;;;;0.50;0.50;;;11.90;99.90;;;;;;5004003;28;20663;-83
2023/12/11 12:04:49;;;;;;;0.60;0.60;;;11.80;1.00;;;;;;5018066;28;20185;-83
2023/12/11 12:07:15;;;;;;;0.60;0.60;;;11.70;99.90;;;;;;5017725;28;20276;-83
2023/12/11 12:09:41;;;;;;;0.50;0.50;;;11.70;1.00;;;;;;5019703;28;20181;-82
2023/12/11 12:12:14;;;;;;;0.47;0.47;;;11.60;1.00;;;;;;5024347;28;20536;-83
2023/12/11 12:14:40;;;;;;;0.50;0.50;;;11.60;99.90;;;;;;5005444;28;20204;-83
2023/12/11 12:17:10;;;;;;;0.50;0.50;;;11.60;1.00;;;;;;5022144;28;20453;-83
2023/12/11 12:19:36;;;;;;;0.60;0.60;;;11.70;1.00;;;;;;5018968;28;20184;-82
2023/12/11 12:22:02;;;;;;;0.60;0.60;;;11.70;99.90;;;;;;5000503;28;20275;-81
2023/12/11 12:24:36;;;;;;;0.70;0.70;;;11.70;1.00;;;;;;5018495;28;20534;-82
2023/12/11 12:27:11;;;;;;;0.50;0.50;;;11.80;1.00;;;;;;5016360;28;20192;-83
2023/12/11 12:29:37;;;;;;;0.50;0.50;;;12.00;99.90;;;;;;5000098;28;20179;-82
2023/12/11 12:32:03;;;;;;;0.50;0.50;;;12.00;1.00;;;;;;5013375;28;20244;-80
2023/12/11 12:34:31;;;;;;;0.60;0.60;;;12.40;1.00;;;;;;5014651;28;20183;-80
2023/12/11 12:37:00;;;;;;;0.50;0.50;;;12.80;99.90;;;;;;5016607;28;20205;-83
2023/12/11 12:39:26;;;;;;;0.47;0.47;;;13.30;99.90;;;;;;5011509;28;20193;-82
2023/12/11 12:41:52;;;;;;;0.47;0.47;;;14.20;90.00;;;;;;5015056;28;20180;-83
2023/12/11 12:44:18;;;;;;;0.60;0.60;;;15.50;1.00;;;;;;5011614;28;20268;-82
2023/12/11 12:46:45;;;;;;;0.50;0.50;;;14.50;1.00;;;;;;5013711;28;20231;-82
2023/12/11 12:49:20;;;;;;;0.50;0.50;;;14.20;1.00;;;;;;5017741;28;20177;-83
2023/12/11 12:51:48;;;;;;;0.50;0.50;;;15.30;1.00;;;;;;5013846;28;20317;-83
2023/12/11 12:54:17;;;;;;;0.47;0.47;;;14.80;1.00;;;;;;5001699;28;20220;-83